Time;durP1;ratioP1;P1;durP2;ratioP2;P2;SDS_P1;SDS_P2;PMS_P1;PMS_P2;Temp;Humidity;BMP_temperature;BMP_pressure;BME280_temperature;BME280_humidity;BME280_pressure;Samples;Min_cycle;Max_cycle;Signal;HPM_P1;HPM_P2
2021/12/06 00:05:58;;;;;;;23.93;9.07;;;4.00;98.20;;;;;;20927316;28;20227;-72
2021/12/06 00:16:02;;;;;;;72.03;9.83;;;4.20;98.10;;;;;;20926487;28;20208;-72
2021/12/06 00:26:04;;;;;;;77.93;10.40;;;4.10;98.10;;;;;;20925820;28;20244;-72
2021/12/06 00:36:15;;;;;;;44.43;8.20;;;4.00;98.10;;;;;;20925157;28;20208;-72
2021/12/06 00:46:18;;;;;;;35.67;8.60;;;4.00;98.30;;;;;;20923480;28;20287;-74
2021/12/06 00:56:20;;;;;;;30.67;7.77;;;4.00;98.50;;;;;;20923748;28;20200;-72
2021/12/06 01:06:22;;;;;;;42.80;8.43;;;4.00;98.10;;;;;;20922563;28;20293;-72
2021/12/06 01:16:25;;;;;;;14.33;7.80;;;4.00;98.30;;;;;;20921842;28;20249;-74
2021/12/06 01:47:20;;;;;;;12.67;7.47;;;4.20;97.90;;;;;;20919280;28;20232;-70
2021/12/06 01:57:23;;;;;;;30.10;7.23;;;4.20;98.10;;;;;;20917568;28;20207;-70
2021/12/06 02:07:26;;;;;;;39.23;7.33;;;3.90;97.40;;;;;;20916925;28;20296;-71
2021/12/06 02:17:32;;;;;;;34.57;7.23;;;4.00;97.50;;;;;;20916712;28;20204;-73
2021/12/06 02:27:34;;;;;;;24.80;7.80;;;4.00;97.70;;;;;;20916789;28;20636;-72
2021/12/06 02:37:36;;;;;;;11.00;6.70;;;3.80;97.60;;;;;;20915572;28;20579;-71
2021/12/06 02:47:38;;;;;;;9.47;6.30;;;3.70;97.70;;;;;;20914722;28;20236;-71
2021/12/06 02:59:10;;;;;;;12.00;6.80;;;3.70;97.60;;;;;;20984962;28;20565;-69
2021/12/06 03:09:18;;;;;;;13.67;6.93;;;4.00;97.80;;;;;;20983438;28;20215;-69
2021/12/06 03:19:20;;;;;;;20.07;8.27;;;4.10;97.50;;;;;;20982722;28;20215;-70
2021/12/06 03:29:23;;;;;;;22.43;7.83;;;4.20;97.80;;;;;;20982412;28;20219;-70
2021/12/06 03:39:28;;;;;;;18.50;8.57;;;4.20;97.30;;;;;;20981413;28;20613;-71
2021/12/06 03:49:30;;;;;;;17.63;8.20;;;4.00;97.30;;;;;;20980232;28;20236;-70
2021/12/06 03:59:33;;;;;;;16.50;8.30;;;4.00;97.60;;;;;;20979393;28;20241;-71
2021/12/06 04:09:35;;;;;;;16.00;8.20;;;4.00;97.50;;;;;;20929142;28;20360;-71
2021/12/06 04:19:37;;;;;;;13.67;7.60;;;3.90;97.50;;;;;;20923405;28;20220;-70
2021/12/06 04:29:50;;;;;;;17.30;8.83;;;4.10;97.70;;;;;;20922798;28;20289;-70
2021/12/06 04:39:51;;;;;;;16.20;7.90;;;4.20;98.10;;;;;;20922875;28;20269;-70
2021/12/06 04:49:53;;;;;;;16.83;8.47;;;4.30;97.60;;;;;;20920644;28;20239;-69
2021/12/06 04:59:59;;;;;;;17.87;9.57;;;4.20;97.40;;;;;;20920117;28;20258;-70
2021/12/06 05:10:04;;;;;;;13.97;8.30;;;4.20;97.70;;;;;;20919589;28;20287;-72
2021/12/06 05:20:08;;;;;;;14.30;8.70;;;4.20;97.70;;;;;;20917641;28;20230;-72
2021/12/06 05:30:12;;;;;;;14.60;7.60;;;4.20;97.40;;;;;;20917372;28;20699;-70
2021/12/06 05:40:22;;;;;;;18.77;9.13;;;4.20;97.70;;;;;;20917124;28;20235;-70
2021/12/06 05:50:25;;;;;;;25.57;9.17;;;4.30;97.50;;;;;;20915025;28;20603;-71
2021/12/06 06:00:30;;;;;;;14.23;7.67;;;4.40;97.70;;;;;;20914019;28;20581;-72
2021/12/06 06:10:33;;;;;;;13.07;7.53;;;4.40;97.70;;;;;;20914490;28;20236;-73
2021/12/06 06:20:46;;;;;;;15.37;9.10;;;4.30;97.20;;;;;;20912399;28;20245;-73
2021/12/06 06:30:47;;;;;;;15.70;8.67;;;4.20;97.30;;;;;;20912317;28;20690;-74
2021/12/06 06:40:50;;;;;;;15.57;9.30;;;4.20;97.20;;;;;;20912300;28;20224;-72
2021/12/06 06:50:52;;;;;;;16.10;9.47;;;4.20;97.20;;;;;;20910083;28;20235;-71
2021/12/06 07:00:54;;;;;;;15.47;9.40;;;4.20;97.50;;;;;;20911319;28;20254;-72
2021/12/06 07:10:57;;;;;;;17.67;9.83;;;4.40;97.70;;;;;;20911117;28;20235;-75
2021/12/06 07:20:59;;;;;;;21.90;13.57;;;4.50;97.60;;;;;;20904861;28;20432;-74
2021/12/06 07:31:02;;;;;;;20.23;11.33;;;4.60;96.90;;;;;;20909440;28;20289;-74
2021/12/06 07:41:10;;;;;;;29.37;11.10;;;4.50;97.10;;;;;;20917446;28;20330;-73
2021/12/06 07:51:11;;;;;;;25.67;10.47;;;4.40;97.00;;;;;;20924273;28;20334;-72
2021/12/06 08:01:14;;;;;;;23.67;11.50;;;4.50;97.40;;;;;;20923785;28;20212;-74
2021/12/06 08:11:16;;;;;;;21.20;10.00;;;4.50;97.00;;;;;;20923421;28;20235;-74
2021/12/06 08:21:20;;;;;;;35.70;10.93;;;4.50;97.00;;;;;;20922444;28;20278;-73
2021/12/06 08:31:22;;;;;;;30.07;13.97;;;4.90;97.30;;;;;;20921548;28;20641;-72
2021/12/06 08:41:28;;;;;;;23.10;10.03;;;5.00;97.50;;;;;;20920507;28;20655;-73
2021/12/06 08:51:33;;;;;;;16.93;8.90;;;5.10;97.10;;;;;;20918030;28;20236;-73
2021/12/06 09:01:37;;;;;;;19.23;8.90;;;5.30;97.00;;;;;;20917859;28;20203;-73
2021/12/06 09:11:59;;;;;;;18.73;9.13;;;5.30;97.20;;;;;;20918991;28;20281;-73
2021/12/06 09:22:01;;;;;;;17.40;9.93;;;5.40;96.70;;;;;;20916594;28;20206;-72
2021/12/06 09:32:09;;;;;;;19.93;10.53;;;5.40;96.50;;;;;;20915519;28;20235;-73
2021/12/06 09:42:11;;;;;;;20.10;10.87;;;5.40;96.50;;;;;;20915767;28;20208;-71
2021/12/06 09:52:14;;;;;;;17.93;9.80;;;5.50;96.40;;;;;;20913928;28;20240;-75
2021/12/06 10:02:19;;;;;;;17.97;10.60;;;5.80;96.40;;;;;;20913011;28;20204;-74
2021/12/06 10:12:22;;;;;;;19.97;11.27;;;6.00;96.20;;;;;;20912999;28;20232;-75
2021/12/06 10:22:26;;;;;;;18.90;11.23;;;6.00;96.40;;;;;;20911774;28;20213;-73
2021/12/06 10:32:32;;;;;;;17.63;10.70;;;6.00;95.90;;;;;;20910904;28;20236;-72
2021/12/06 10:42:41;;;;;;;16.37;9.93;;;6.20;96.20;;;;;;20911227;28;20205;-71
2021/12/06 10:52:54;;;;;;;19.60;11.57;;;6.40;95.80;;;;;;20910164;28;20245;-71
2021/12/06 11:02:56;;;;;;;19.90;11.70;;;6.60;95.60;;;;;;20910382;28;20689;-71
2021/12/06 11:13:20;;;;;;;16.40;9.47;;;6.20;95.30;;;;;;20912060;28;20268;-71
2021/12/06 11:23:22;;;;;;;18.47;10.80;;;6.30;95.40;;;;;;20926815;28;20258;-72
2021/12/06 11:33:30;;;;;;;19.17;11.77;;;6.20;95.20;;;;;;20925399;28;20272;-74
2021/12/06 11:43:38;;;;;;;15.20;9.20;;;6.20;95.40;;;;;;20923512;28;20208;-75
2021/12/06 11:53:48;;;;;;;15.80;8.43;;;5.90;95.40;;;;;;20923829;28;20238;-72
2021/12/06 12:03:54;;;;;;;16.77;9.30;;;5.80;95.80;;;;;;20921619;28;20208;-72
2021/12/06 12:13:57;;;;;;;17.07;9.90;;;5.90;95.60;;;;;;20922148;28;20282;-73
2021/12/06 12:23:59;;;;;;;14.50;8.93;;;5.90;95.90;;;;;;20921125;28;20208;-71
2021/12/06 12:34:01;;;;;;;19.30;10.63;;;5.80;95.60;;;;;;20920573;28;20235;-75
2021/12/06 12:44:07;;;;;;;16.87;10.23;;;5.80;95.90;;;;;;20919793;28;20200;-71
2021/12/06 12:54:19;;;;;;;21.43;10.00;;;5.90;95.90;;;;;;20919181;28;20612;-72
2021/12/06 13:04:22;;;;;;;20.63;10.70;;;5.80;95.80;;;;;;20920346;28;20611;-72
2021/12/06 13:14:37;;;;;;;22.17;11.07;;;5.80;95.90;;;;;;20918077;28;20735;-72
2021/12/06 13:25:00;;;;;;;23.53;12.77;;;5.90;96.30;;;;;;20917017;28;20258;-72
2021/12/06 13:35:17;;;;;;;21.93;11.47;;;6.00;95.90;;;;;;20912732;28;20829;-72
2021/12/06 13:45:22;;;;;;;18.87;11.33;;;6.10;96.10;;;;;;20916820;28;20219;-72
2021/12/06 13:55:27;;;;;;;21.07;12.40;;;6.10;96.40;;;;;;20914646;28;20314;-72
2021/12/06 14:05:30;;;;;;;33.30;17.43;;;6.40;96.10;;;;;;20914365;28;20677;-72
2021/12/06 14:15:36;;;;;;;32.13;16.63;;;6.30;96.10;;;;;;20913059;28;20596;-73
2021/12/06 14:25:47;;;;;;;28.23;16.33;;;6.40;96.40;;;;;;20912472;28;20212;-73
2021/12/06 14:35:49;;;;;;;28.30;15.93;;;6.40;96.10;;;;;;20911489;28;20233;-73
2021/12/06 14:46:05;;;;;;;24.43;14.23;;;6.50;96.30;;;;;;20910821;28;20212;-72
2021/12/06 14:56:22;;;;;;;15.47;8.77;;;6.50;96.50;;;;;;20910431;28;20243;-73
2021/12/06 15:06:46;;;;;;;11.07;8.07;;;6.30;96.00;;;;;;20910223;28;20251;-73
2021/12/06 15:16:48;;;;;;;11.80;7.93;;;6.30;95.30;;;;;;20909755;28;20295;-71
2021/12/06 15:26:55;;;;;;;13.43;8.47;;;6.20;95.20;;;;;;20910143;28;20201;-71
2021/12/06 15:36:57;;;;;;;14.07;9.20;;;6.20;95.50;;;;;;20908842;28;20237;-73
2021/12/06 15:47:11;;;;;;;15.43;9.43;;;6.20;95.20;;;;;;20908622;28;20214;-69
2021/12/06 15:57:22;;;;;;;13.67;10.90;;;6.00;94.90;;;;;;20883616;28;20518;-78
2021/12/06 16:07:31;;;;;;;15.43;9.23;;;6.50;94.60;;;;;;20923098;28;20205;-72
2021/12/06 16:17:35;;;;;;;17.80;10.03;;;5.80;94.30;;;;;;20922309;28;20231;-72
2021/12/06 16:27:36;;;;;;;19.47;9.87;;;5.80;94.80;;;;;;20921989;28;20209;-74
2021/12/06 16:37:38;;;;;;;19.00;10.83;;;5.70;94.40;;;;;;20921877;28;20290;-75
2021/12/06 16:47:46;;;;;;;17.67;10.63;;;5.60;94.50;;;;;;20920730;28;20204;-72
2021/12/06 16:57:52;;;;;;;16.43;10.40;;;5.60;94.50;;;;;;20919892;28;20712;-74
2021/12/06 17:08:11;;;;;;;18.70;10.77;;;5.40;94.30;;;;;;20919918;28;20212;-72
2021/12/06 17:18:14;;;;;;;18.57;11.33;;;5.40;94.40;;;;;;20918889;28;20228;-71
2021/12/06 17:28:24;;;;;;;18.97;10.93;;;5.20;94.30;;;;;;20918138;28;20213;-73
2021/12/06 17:38:29;;;;;;;19.90;11.87;;;5.20;94.30;;;;;;20917115;28;20567;-74
2021/12/06 17:48:31;;;;;;;21.03;12.57;;;5.10;94.10;;;;;;20915216;28;20625;-72
2021/12/06 17:58:54;;;;;;;20.83;11.93;;;5.00;93.80;;;;;;20915166;28;20650;-76
2021/12/06 18:08:56;;;;;;;16.00;10.33;;;4.90;93.70;;;;;;20915275;28;20664;-75
2021/12/06 18:18:58;;;;;;;20.63;12.60;;;5.00;93.60;;;;;;20914132;28;20297;-71
2021/12/06 18:28:59;;;;;;;16.63;11.73;;;5.10;93.50;;;;;;20913014;28;20235;-73
2021/12/06 18:39:06;;;;;;;16.53;10.13;;;5.10;93.70;;;;;;20913303;28;20289;-75
2021/12/06 18:49:16;;;;;;;13.80;9.17;;;5.20;93.40;;;;;;20912446;28;20203;-76
2021/12/06 18:59:17;;;;;;;14.43;9.67;;;5.30;93.30;;;;;;20910957;28;20231;-75
2021/12/06 19:09:20;;;;;;;14.07;9.07;;;5.40;93.30;;;;;;20910995;28;20216;-76
2021/12/06 19:19:22;;;;;;;11.50;8.07;;;5.50;93.20;;;;;;20910123;28;20238;-76
2021/12/06 19:29:24;;;;;;;15.20;9.50;;;5.70;93.00;;;;;;20909872;28;20265;-76
2021/12/06 19:39:25;;;;;;;17.13;10.73;;;5.70;93.20;;;;;;20922817;28;20305;-74
2021/12/06 19:49:27;;;;;;;28.30;15.40;;;5.60;92.80;;;;;;20925341;28;20233;-75
2021/12/06 19:59:29;;;;;;;21.03;12.57;;;5.60;93.00;;;;;;20901283;28;20228;-73
2021/12/06 20:09:31;;;;;;;20.80;13.17;;;5.50;93.30;;;;;;20909987;28;20254;-78
2021/12/06 20:19:34;;;;;;;17.37;11.73;;;5.50;93.20;;;;;;20883968;28;20290;-72
2021/12/06 20:29:37;;;;;;;19.87;12.23;;;5.50;93.70;;;;;;20922304;28;20217;-73
2021/12/06 20:39:40;;;;;;;19.93;12.37;;;5.60;93.70;;;;;;20921895;28;20673;-72
2021/12/06 20:49:43;;;;;;;21.03;14.00;;;5.50;93.50;;;;;;20899772;28;20237;-71
2021/12/06 20:59:44;;;;;;;21.75;16.25;;;5.60;93.70;;;;;;20837650;28;20987;-71
2021/12/06 21:09:49;;;;;;;22.60;14.83;;;5.70;93.70;;;;;;20861107;28;20291;-75
2021/12/06 21:19:51;;;;;;;25.87;15.27;;;5.60;93.70;;;;;;20898711;28;20273;-73
2021/12/06 21:29:53;;;;;;;26.17;16.37;;;5.50;93.80;;;;;;20899387;28;20541;-71
2021/12/06 21:39:55;;;;;;;27.60;17.17;;;5.50;94.00;;;;;;20835094;28;20232;-71
2021/12/06 21:49:56;;;;;;;32.10;18.20;;;5.40;93.80;;;;;;20833288;28;20279;-71
2021/12/06 21:59:58;;;;;;;30.23;18.40;;;5.30;94.20;;;;;;20832476;28;20351;-71
2021/12/06 22:10:01;;;;;;;29.97;18.30;;;5.10;94.00;;;;;;20880759;28;20204;-74
2021/12/06 22:20:07;;;;;;;31.43;18.53;;;5.10;94.00;;;;;;20914367;28;20695;-71
2021/12/06 22:30:10;;;;;;;30.37;22.60;;;5.00;94.00;;;;;;20910221;28;20428;-71
2021/12/06 22:40:15;;;;;;;27.93;18.97;;;5.00;94.20;;;;;;20910449;28;20494;-71
2021/12/06 22:50:17;;;;;;;28.10;17.47;;;5.00;94.20;;;;;;20912069;28;20231;-71
2021/12/06 23:00:27;;;;;;;28.27;17.33;;;5.10;94.10;;;;;;20912061;28;20227;-71
2021/12/06 23:10:32;;;;;;;26.20;17.47;;;5.00;93.90;;;;;;20919593;28;20675;-71
2021/12/06 23:20:34;;;;;;;26.67;16.97;;;5.00;93.90;;;;;;20882281;28;20232;-71
2021/12/06 23:30:37;;;;;;;26.97;16.13;;;5.00;93.90;;;;;;20842767;28;20274;-71
2021/12/06 23:40:47;;;;;;;23.60;15.77;;;5.00;93.70;;;;;;20844683;28;20236;-72
2021/12/06 23:50:48;;;;;;;24.30;15.03;;;5.00;93.70;;;;;;20843399;28;20240;-71
